Time;durP1;ratioP1;P1;durP2;ratioP2;P2;SDS_P1;SDS_P2;PMS_P1;PMS_P2;Temp;Humidity;BMP_temperature;BMP_pressure;BME280_temperature;BME280_humidity;BME280_pressure;Samples;Min_cycle;Max_cycle;Signal;HPM_P1;HPM_P2
2021/07/09 00:02:32;;;;;;;11.98;5.68;;;;;;;;;;5110737;28;20555;-67
2021/07/09 00:04:59;;;;;;;9.43;5.32;;;;;;;;;;5108666;28;20040;-67
2021/07/09 00:08:54;;;;;;;8.43;5.32;;;;;;;;;;5110419;27;20416;-67
2021/07/09 00:11:21;;;;;;;8.60;4.78;;;;;;;;;;5110278;28;20488;-67
2021/07/09 00:14:43;;;;;;;6.65;4.25;;;;;;;;;;5110460;27;20814;-67
2021/07/09 00:17:09;;;;;;;10.13;5.63;;;;;;;;;;5109158;28;20048;-68
2021/07/09 00:19:35;;;;;;;7.63;4.72;;;;;;;;;;5109921;28;20024;-68
2021/07/09 00:23:49;;;;;;;6.90;4.47;;;;;;;;;;5110436;27;21016;-67
2021/07/09 00:26:15;;;;;;;9.07;5.30;;;;;;;;;;5108955;28;20324;-67
2021/07/09 00:28:42;;;;;;;7.18;4.80;;;;;;;;;;5110407;28;20028;-67
2021/07/09 00:31:08;;;;;;;7.38;4.90;;;;;;;;;;5108951;28;20032;-68
2021/07/09 00:33:34;;;;;;;9.00;5.40;;;;;;;;;;5108736;28;20127;-67
2021/07/09 00:36:00;;;;;;;8.82;4.82;;;;;;;;;;5110285;28;20016;-68
2021/07/09 00:38:53;;;;;;;8.63;5.38;;;;;;;;;;5069897;28;20387;-67
2021/07/09 00:41:20;;;;;;;9.52;5.63;;;;;;;;;;5069455;28;20032;-66
2021/07/09 00:43:46;;;;;;;8.13;5.03;;;;;;;;;;5069885;28;20416;-67
2021/07/09 00:46:12;;;;;;;8.32;4.93;;;;;;;;;;5069993;28;20020;-67
2021/07/09 00:48:39;;;;;;;9.13;5.95;;;;;;;;;;5068184;28;20096;-67
2021/07/09 00:51:06;;;;;;;8.30;5.68;;;;;;;;;;5069702;28;20029;-67
2021/07/09 00:53:33;;;;;;;8.10;4.68;;;;;;;;;;5069662;28;20103;-67
2021/07/09 00:55:59;;;;;;;7.63;4.47;;;;;;;;;;5069234;28;20029;-69
2021/07/09 00:58:26;;;;;;;9.15;5.13;;;;;;;;;;5069438;28;20032;-68
2021/07/09 01:00:53;;;;;;;8.57;5.32;;;;;;;;;;5069493;28;20413;-69
2021/07/09 01:03:19;;;;;;;8.90;5.45;;;;;;;;;;5067821;28;20021;-68
2021/07/09 01:05:45;;;;;;;7.65;5.53;;;;;;;;;;5068307;28;20017;-68
2021/07/09 01:08:12;;;;;;;7.90;5.05;;;;;;;;;;5069083;28;20017;-68
2021/07/09 01:10:38;;;;;;;8.77;5.28;;;;;;;;;;5068096;28;20393;-68
2021/07/09 01:13:05;;;;;;;9.60;5.05;;;;;;;;;;5067976;28;20027;-69
2021/07/09 01:15:31;;;;;;;8.30;5.50;;;;;;;;;;5068992;28;20427;-68
2021/07/09 01:17:57;;;;;;;7.78;4.90;;;;;;;;;;5069031;28;20033;-69
2021/07/09 01:20:23;;;;;;;9.60;4.85;;;;;;;;;;5069056;28;20540;-68
2021/07/09 01:22:50;;;;;;;9.75;5.10;;;;;;;;;;5067418;28;20127;-68
2021/07/09 01:25:18;;;;;;;9.50;5.65;;;;;;;;;;5069204;28;20035;-68
2021/07/09 01:27:45;;;;;;;7.90;5.40;;;;;;;;;;5067769;28;20024;-69
2021/07/09 01:30:13;;;;;;;9.57;5.72;;;;;;;;;;5068538;28;20021;-68
2021/07/09 01:32:40;;;;;;;11.02;5.43;;;;;;;;;;5068864;28;20106;-68
2021/07/09 01:35:06;;;;;;;8.25;5.30;;;;;;;;;;5068775;28;20017;-68
2021/07/09 01:37:32;;;;;;;9.38;5.57;;;;;;;;;;5068041;28;20558;-68
2021/07/09 01:40:00;;;;;;;8.55;5.40;;;;;;;;;;5068624;28;20408;-68
2021/07/09 01:43:53;;;;;;;7.53;4.78;;;;;;;;;;5110055;27;20408;-66
2021/07/09 01:46:19;;;;;;;9.57;5.80;;;;;;;;;;5110487;28;20054;-66
2021/07/09 01:50:47;;;;;;;9.75;5.65;;;;;;;;;;5110014;27;20411;-66
2021/07/09 01:53:13;;;;;;;8.93;5.57;;;;;;;;;;5110333;28;20063;-66
2021/07/09 01:55:39;;;;;;;10.02;5.78;;;;;;;;;;5110350;28;20024;-66
2021/07/09 01:58:05;;;;;;;11.02;6.05;;;;;;;;;;5108688;28;20035;-66
2021/07/09 02:00:32;;;;;;;8.65;5.82;;;;;;;;;;5110240;28;20020;-69
2021/07/09 02:02:58;;;;;;;8.65;4.90;;;;;;;;;;5110484;28;20031;-66
2021/07/09 02:05:25;;;;;;;9.15;5.25;;;;;;;;;;5110003;28;20472;-66
2021/07/09 02:07:56;;;;;;;9.18;4.88;;;;;;;;;;5110149;28;20024;-66
2021/07/09 02:10:24;;;;;;;8.88;5.28;;;;;;;;;;5108777;28;20043;-66
2021/07/09 02:12:54;;;;;;;8.30;5.30;;;;;;;;;;5108366;28;20395;-67
2021/07/09 02:15:21;;;;;;;8.82;5.20;;;;;;;;;;5110104;28;20024;-67
2021/07/09 02:17:47;;;;;;;11.02;6.63;;;;;;;;;;5109961;28;20023;-69
2021/07/09 02:20:17;;;;;;;9.50;5.18;;;;;;;;;;5109679;28;20024;-67
2021/07/09 02:22:44;;;;;;;9.60;6.13;;;;;;;;;;5109972;28;20027;-68
2021/07/09 02:25:11;;;;;;;9.13;6.18;;;;;;;;;;5108684;28;20027;-67
2021/07/09 02:27:38;;;;;;;9.00;5.65;;;;;;;;;;5109454;28;20369;-66
2021/07/09 02:30:16;;;;;;;9.07;6.10;;;;;;;;;;5069895;28;20407;-66
2021/07/09 02:32:43;;;;;;;8.45;5.22;;;;;;;;;;5069502;28;20035;-68
2021/07/09 02:35:10;;;;;;;11.27;5.45;;;;;;;;;;5069747;28;20028;-67
2021/07/09 02:37:37;;;;;;;10.02;5.63;;;;;;;;;;5068473;28;20391;-67
2021/07/09 02:40:12;;;;;;;12.13;6.10;;;;;;;;;;5069568;28;20504;-67
2021/07/09 02:42:43;;;;;;;9.43;5.50;;;;;;;;;;5069745;28;20103;-67
2021/07/09 02:45:12;;;;;;;18.17;5.95;;;;;;;;;;5069771;28;20525;-67
2021/07/09 02:47:38;;;;;;;8.52;5.22;;;;;;;;;;5069202;28;20025;-67
2021/07/09 02:50:08;;;;;;;8.85;5.13;;;;;;;;;;5068180;28;20087;-68
2021/07/09 02:52:35;;;;;;;9.85;5.88;;;;;;;;;;5069550;28;20104;-67
2021/07/09 02:55:01;;;;;;;9.50;5.60;;;;;;;;;;5067854;28;20040;-67
2021/07/09 02:57:27;;;;;;;9.90;6.10;;;;;;;;;;5069348;28;20024;-67
2021/07/09 02:59:53;;;;;;;9.63;5.57;;;;;;;;;;5069337;28;20028;-67
2021/07/09 03:02:20;;;;;;;9.45;6.00;;;;;;;;;;5068984;28;20048;-67
2021/07/09 03:04:46;;;;;;;9.40;5.45;;;;;;;;;;5069348;28;20032;-68
2021/07/09 03:07:12;;;;;;;8.95;4.85;;;;;;;;;;5069325;28;20032;-67
2021/07/09 03:11:15;;;;;;;12.13;6.03;;;;;;;;;;5110421;27;20397;-67
2021/07/09 03:13:41;;;;;;;11.80;5.70;;;;;;;;;;5110350;28;20391;-67
2021/07/09 03:18:41;;;;;;;10.02;5.72;;;;;;;;;;5110856;27;20466;-66
2021/07/09 03:21:07;;;;;;;9.25;5.22;;;;;;;;;;5110448;28;20531;-66
2021/07/09 03:23:33;;;;;;;9.30;5.70;;;;;;;;;;5110153;28;20023;-66
2021/07/09 03:27:59;;;;;;;9.07;6.10;;;;;;;;;;5110376;27;20877;-67
2021/07/09 03:30:25;;;;;;;11.07;6.72;;;;;;;;;;5108634;28;20055;-67
2021/07/09 03:32:51;;;;;;;9.73;6.28;;;;;;;;;;5110297;28;20020;-67
2021/07/09 03:35:18;;;;;;;9.55;5.68;;;;;;;;;;5110254;28;20054;-67
2021/07/09 03:37:44;;;;;;;8.40;5.97;;;;;;;;;;5109811;28;20529;-67
2021/07/09 03:40:10;;;;;;;12.48;6.38;;;;;;;;;;5110252;28;20028;-66
2021/07/09 03:42:36;;;;;;;9.82;5.43;;;;;;;;;;5110325;28;20050;-67
2021/07/09 03:45:03;;;;;;;8.80;5.32;;;;;;;;;;5109989;28;20020;-67
2021/07/09 03:48:17;;;;;;;8.88;5.72;;;;;;;;;;5110367;27;20465;-66
2021/07/09 03:52:38;;;;;;;10.77;5.93;;;;;;;;;;5110088;27;20381;-66
2021/07/09 03:55:05;;;;;;;9.63;6.57;;;;;;;;;;5110289;28;20107;-67
2021/07/09 03:57:31;;;;;;;8.95;5.78;;;;;;;;;;5109748;28;20024;-67
2021/07/09 04:01:10;;;;;;;12.60;6.80;;;;;;;;;;5110362;27;20397;-66
2021/07/09 04:04:32;;;;;;;8.20;5.22;;;;;;;;;;5110246;27;20396;-67
2021/07/09 04:06:58;;;;;;;9.13;5.28;;;;;;;;;;5110493;28;20472;-68
2021/07/09 04:09:59;;;;;;;8.55;5.40;;;;;;;;;;5094904;27;1701869;-67
2021/07/09 04:14:01;;;;;;;8.18;5.10;;;;;;;;;;5110382;27;20388;-67
2021/07/09 04:16:27;;;;;;;7.88;5.20;;;;;;;;;;5110410;28;20024;-68
2021/07/09 04:18:53;;;;;;;8.13;4.95;;;;;;;;;;5109967;28;20095;-68
2021/07/09 04:22:25;;;;;;;11.10;5.18;;;;;;;;;;5110534;27;20807;-67
2021/07/09 04:24:51;;;;;;;7.93;5.22;;;;;;;;;;5126440;28;20414;-69
2021/07/09 04:27:17;;;;;;;8.65;5.53;;;;;;;;;;5109941;28;20062;-70
2021/07/09 04:29:44;;;;;;;9.10;5.28;;;;;;;;;;5110324;28;20364;-69
2021/07/09 04:33:11;;;;;;;9.80;5.00;;;;;;;;;;5110079;27;20405;-69
2021/07/09 04:36:37;;;;;;;7.18;4.70;;;;;;;;;;5110486;27;20120;-69
2021/07/09 04:39:04;;;;;;;8.77;4.60;;;;;;;;;;5110084;28;20028;-69
2021/07/09 04:41:30;;;;;;;6.68;4.15;;;;;;;;;;5110433;28;20023;-69
2021/07/09 04:43:56;;;;;;;9.43;4.43;;;;;;;;;;5109219;28;20422;-68
2021/07/09 04:46:22;;;;;;;8.85;5.45;;;;;;;;;;5110115;28;20087;-69
2021/07/09 04:48:48;;;;;;;6.93;4.60;;;;;;;;;;5110340;28;20090;-67
2021/07/09 04:51:15;;;;;;;10.65;5.97;;;;;;;;;;5110543;28;20023;-67
2021/07/09 04:53:41;;;;;;;7.90;4.82;;;;;;;;;;5109726;28;20028;-67
2021/07/09 04:56:07;;;;;;;8.90;5.95;;;;;;;;;;5110009;28;20082;-67
2021/07/09 04:58:33;;;;;;;11.80;6.30;;;;;;;;;;5110078;28;20024;-67
2021/07/09 05:00:59;;;;;;;10.80;5.82;;;;;;;;;;5109650;28;20027;-67
2021/07/09 05:03:25;;;;;;;8.48;5.10;;;;;;;;;;5110056;28;20502;-67
2021/07/09 05:05:52;;;;;;;8.75;5.07;;;;;;;;;;5109126;28;20407;-67
2021/07/09 05:08:18;;;;;;;9.52;5.80;;;;;;;;;;5109552;28;20030;-67
2021/07/09 05:10:45;;;;;;;8.68;5.70;;;;;;;;;;5108442;28;20069;-67
2021/07/09 05:13:11;;;;;;;11.55;5.97;;;;;;;;;;5109817;28;20494;-67
2021/07/09 05:15:37;;;;;;;8.70;5.32;;;;;;;;;;5109287;28;20035;-67
2021/07/09 05:19:53;;;;;;;11.52;5.60;;;;;;;;;;5110068;27;20814;-68
2021/07/09 05:22:23;;;;;;;7.60;4.55;;;;;;;;;;5089580;28;20492;-68
2021/07/09 05:24:54;;;;;;;8.77;4.97;;;;;;;;;;5091867;28;20357;-68
2021/07/09 05:27:26;;;;;;;10.80;5.30;;;;;;;;;;5090064;28;20024;-68
2021/07/09 05:29:53;;;;;;;7.43;4.45;;;;;;;;;;5089742;28;20040;-67
2021/07/09 05:32:23;;;;;;;6.88;4.63;;;;;;;;;;5088511;28;20035;-69
2021/07/09 05:34:50;;;;;;;11.80;5.47;;;;;;;;;;5089614;28;20402;-69
2021/07/09 05:37:17;;;;;;;9.18;4.75;;;;;;;;;;5089479;28;20046;-67
2021/07/09 05:39:43;;;;;;;10.07;5.97;;;;;;;;;;5088499;28;20032;-70
2021/07/09 05:42:09;;;;;;;10.25;4.97;;;;;;;;;;5088487;28;20024;-69
2021/07/09 05:44:36;;;;;;;9.00;5.18;;;;;;;;;;5089220;28;20036;-69
2021/07/09 05:47:02;;;;;;;7.97;4.97;;;;;;;;;;5089481;28;20145;-70
2021/07/09 05:49:29;;;;;;;7.00;4.57;;;;;;;;;;5089167;28;20081;-70
2021/07/09 05:51:55;;;;;;;10.80;5.55;;;;;;;;;;5085494;28;20063;-70
2021/07/09 05:54:21;;;;;;;7.85;4.97;;;;;;;;;;5087634;28;20021;-70
2021/07/09 05:56:47;;;;;;;8.70;4.82;;;;;;;;;;5088722;28;20024;-69
2021/07/09 05:59:13;;;;;;;7.35;4.60;;;;;;;;;;5088312;28;20501;-68
2021/07/09 06:01:40;;;;;;;10.50;6.03;;;;;;;;;;5108668;28;20024;-68
2021/07/09 06:04:06;;;;;;;14.38;5.00;;;;;;;;;;5109046;28;20020;-68
2021/07/09 06:06:33;;;;;;;8.43;5.07;;;;;;;;;;5109114;28;20020;-68
2021/07/09 06:08:59;;;;;;;7.97;5.32;;;;;;;;;;5107844;28;20027;-68
2021/07/09 06:12:17;;;;;;;7.75;5.20;;;;;;;;;;5108603;27;20392;-68
2021/07/09 06:14:43;;;;;;;10.23;5.78;;;;;;;;;;5108212;28;20031;-68
2021/07/09 06:17:10;;;;;;;8.60;5.20;;;;;;;;;;5108124;28;20045;-68
2021/07/09 06:19:36;;;;;;;9.07;5.22;;;;;;;;;;5109128;28;20087;-67
2021/07/09 06:22:02;;;;;;;9.82;5.82;;;;;;;;;;5109856;28;20434;-67
2021/07/09 06:24:29;;;;;;;9.35;4.88;;;;;;;;;;5109915;28;20081;-68
2021/07/09 06:26:55;;;;;;;7.18;5.15;;;;;;;;;;5109465;28;20429;-68
2021/07/09 06:29:21;;;;;;;9.48;5.63;;;;;;;;;;5109794;28;20091;-68
2021/07/09 06:31:48;;;;;;;8.60;5.30;;;;;;;;;;5108047;28;20407;-67
2021/07/09 06:34:14;;;;;;;10.43;6.13;;;;;;;;;;5108717;28;20012;-68
2021/07/09 06:36:40;;;;;;;8.20;4.80;;;;;;;;;;5109472;28;20391;-69
2021/07/09 06:39:06;;;;;;;9.32;5.60;;;;;;;;;;5107959;28;20032;-68
2021/07/09 06:41:33;;;;;;;8.85;5.45;;;;;;;;;;5107886;28;20483;-68
2021/07/09 06:44:00;;;;;;;9.48;5.88;;;;;;;;;;5108753;28;20020;-68
2021/07/09 06:46:26;;;;;;;10.25;5.50;;;;;;;;;;5109466;28;20024;-68
2021/07/09 06:48:53;;;;;;;10.13;5.85;;;;;;;;;;5107725;28;20077;-68
2021/07/09 06:51:19;;;;;;;7.65;5.32;;;;;;;;;;5109215;28;20039;-68
2021/07/09 06:53:47;;;;;;;12.73;5.70;;;;;;;;;;5108398;28;20040;-68
2021/07/09 06:56:14;;;;;;;11.13;6.57;;;;;;;;;;5107695;28;20044;-68
2021/07/09 06:58:40;;;;;;;8.05;6.05;;;;;;;;;;5107975;28;20487;-68
2021/07/09 07:01:07;;;;;;;9.38;6.32;;;;;;;;;;5106363;28;20032;-68
2021/07/09 07:03:33;;;;;;;8.35;6.05;;;;;;;;;;5107469;28;20080;-68
2021/07/09 07:05:59;;;;;;;11.63;6.53;;;;;;;;;;5107080;28;20026;-68
2021/07/09 07:08:26;;;;;;;12.52;7.60;;;;;;;;;;5105567;28;20023;-68
2021/07/09 07:10:53;;;;;;;12.23;6.72;;;;;;;;;;5108287;28;20044;-69
2021/07/09 07:13:20;;;;;;;9.70;6.55;;;;;;;;;;5107834;28;20051;-69
2021/07/09 07:15:47;;;;;;;8.82;6.20;;;;;;;;;;5108353;28;20503;-69
2021/07/09 07:18:14;;;;;;;10.45;5.45;;;;;;;;;;5108974;28;20031;-68
2021/07/09 07:20:41;;;;;;;8.48;5.80;;;;;;;;;;5108873;28;20028;-68
2021/07/09 07:23:12;;;;;;;7.97;5.53;;;;;;;;;;5096061;28;20564;-67
2021/07/09 07:25:38;;;;;;;8.82;6.38;;;;;;;;;;5095404;28;20032;-67
2021/07/09 07:28:05;;;;;;;9.20;5.90;;;;;;;;;;5094926;28;20472;-68
2021/07/09 07:30:31;;;;;;;8.10;5.18;;;;;;;;;;5095031;28;20024;-68
2021/07/09 07:32:58;;;;;;;9.23;6.93;;;;;;;;;;5095017;28;20488;-68
2021/07/09 07:35:24;;;;;;;9.57;5.97;;;;;;;;;;5095121;28;20720;-68
2021/07/09 07:37:51;;;;;;;11.52;6.57;;;;;;;;;;5093521;28;20032;-68
2021/07/09 07:40:17;;;;;;;11.52;6.53;;;;;;;;;;5094911;28;20032;-68
2021/07/09 07:42:43;;;;;;;9.23;6.32;;;;;;;;;;5094716;28;20028;-68
2021/07/09 07:45:10;;;;;;;8.68;6.05;;;;;;;;;;5093803;28;20105;-68
2021/07/09 07:47:36;;;;;;;11.40;6.07;;;;;;;;;;5094610;28;20020;-68
2021/07/09 07:50:03;;;;;;;9.98;6.20;;;;;;;;;;5093052;28;20085;-69
2021/07/09 07:52:29;;;;;;;9.50;6.55;;;;;;;;;;5094808;28;20495;-70
2021/07/09 07:54:56;;;;;;;9.73;5.93;;;;;;;;;;5094520;28;20078;-68
2021/07/09 07:57:22;;;;;;;7.38;5.60;;;;;;;;;;5086943;28;20028;-68
2021/07/09 07:59:48;;;;;;;9.18;5.65;;;;;;;;;;5111136;28;20043;-68
2021/07/09 08:02:14;;;;;;;8.85;6.05;;;;;;;;;;5110797;28;20030;-67
2021/07/09 08:04:41;;;;;;;14.68;6.50;;;;;;;;;;5094469;28;20103;-67
2021/07/09 08:07:10;;;;;;;9.68;6.80;;;;;;;;;;5077588;28;20024;-68
2021/07/09 08:09:36;;;;;;;8.27;5.45;;;;;;;;;;5114246;28;20019;-68
2021/07/09 08:12:02;;;;;;;9.27;5.40;;;;;;;;;;5094608;28;20065;-68
2021/07/09 08:14:29;;;;;;;7.25;5.15;;;;;;;;;;5092907;28;20020;-68
2021/07/09 08:16:55;;;;;;;8.68;6.13;;;;;;;;;;5090590;28;20016;-68
2021/07/09 08:19:22;;;;;;;8.98;6.50;;;;;;;;;;5093436;28;20020;-68
2021/07/09 08:21:49;;;;;;;8.45;6.28;;;;;;;;;;5093818;28;20052;-68
2021/07/09 08:24:15;;;;;;;10.88;5.25;;;;;;;;;;5094135;28;20047;-69
2021/07/09 08:26:42;;;;;;;7.90;5.80;;;;;;;;;;5092424;28;20077;-67
2021/07/09 08:29:08;;;;;;;18.17;6.13;;;;;;;;;;5092500;28;20024;-67
2021/07/09 08:31:34;;;;;;;9.57;5.05;;;;;;;;;;5092366;28;20552;-70
2021/07/09 08:34:00;;;;;;;8.18;5.18;;;;;;;;;;5091046;28;20111;-68
2021/07/09 08:36:27;;;;;;;7.53;4.57;;;;;;;;;;5093908;28;20099;-68
2021/07/09 08:38:54;;;;;;;6.38;3.67;;;;;;;;;;5091332;28;20012;-68
2021/07/09 08:41:21;;;;;;;9.05;4.72;;;;;;;;;;5092971;28;20091;-68
2021/07/09 08:43:47;;;;;;;7.30;4.53;;;;;;;;;;5093886;28;20217;-68
2021/07/09 08:46:17;;;;;;;6.32;4.20;;;;;;;;;;5093210;28;20686;-68
2021/07/09 08:48:44;;;;;;;5.85;4.07;;;;;;;;;;5093498;28;20020;-68
2021/07/09 08:51:10;;;;;;;7.50;4.00;;;;;;;;;;5093277;28;20024;-67
2021/07/09 08:53:37;;;;;;;7.22;4.53;;;;;;;;;;5093110;28;20416;-68
2021/07/09 08:56:04;;;;;;;7.38;4.30;;;;;;;;;;5093628;28;20031;-68
2021/07/09 08:58:30;;;;;;;6.65;3.90;;;;;;;;;;5093395;28;20104;-68
2021/07/09 09:00:57;;;;;;;8.35;3.88;;;;;;;;;;5092715;28;20025;-68
2021/07/09 09:03:26;;;;;;;5.78;3.42;;;;;;;;;;5081220;28;20559;-67
2021/07/09 09:05:59;;;;;;;5.97;4.03;;;;;;;;;;5083600;28;20096;-68
2021/07/09 09:08:25;;;;;;;7.57;3.85;;;;;;;;;;5075296;28;20027;-68
2021/07/09 09:10:52;;;;;;;6.13;3.90;;;;;;;;;;5072237;28;20056;-67
2021/07/09 09:13:20;;;;;;;6.50;3.40;;;;;;;;;;5076177;28;20027;-68
2021/07/09 09:16:04;;;;;;;6.05;3.60;;;;;;;;;;5070339;28;20035;-68
2021/07/09 09:18:33;;;;;;;9.20;4.03;;;;;;;;;;5073417;28;20023;-67
2021/07/09 09:21:03;;;;;;;6.28;4.00;;;;;;;;;;5076966;28;20019;-68
2021/07/09 09:23:31;;;;;;;6.75;4.20;;;;;;;;;;5073761;28;20035;-67
2021/07/09 09:25:57;;;;;;;5.28;3.75;;;;;;;;;;5075904;28;20073;-67
2021/07/09 09:28:24;;;;;;;7.63;4.32;;;;;;;;;;5071792;28;20020;-68
2021/07/09 09:30:52;;;;;;;6.20;3.75;;;;;;;;;;5073459;28;20028;-67
2021/07/09 09:33:18;;;;;;;6.18;4.07;;;;;;;;;;5079472;28;20048;-67
2021/07/09 09:35:47;;;;;;;6.68;3.95;;;;;;;;;;5078102;28;20244;-68
2021/07/09 09:38:15;;;;;;;6.35;3.83;;;;;;;;;;5077941;28;20052;-69
2021/07/09 09:40:43;;;;;;;7.80;4.20;;;;;;;;;;5073177;28;20047;-69
2021/07/09 09:43:18;;;;;;;6.68;3.97;;;;;;;;;;5076181;28;20479;-69
2021/07/09 09:45:45;;;;;;;5.93;3.75;;;;;;;;;;5073408;28;20028;-69
2021/07/09 09:48:15;;;;;;;6.72;4.55;;;;;;;;;;5073824;28;20341;-67
2021/07/09 09:50:43;;;;;;;6.15;3.60;;;;;;;;;;5074110;28;20062;-68
2021/07/09 09:53:09;;;;;;;6.15;4.05;;;;;;;;;;5082251;28;20030;-69
2021/07/09 09:55:35;;;;;;;8.57;4.82;;;;;;;;;;5083573;28;20031;-68
2021/07/09 09:58:21;;;;;;;8.23;3.97;;;;;;;;;;5092196;28;20020;-68
2021/07/09 10:00:49;;;;;;;6.75;4.18;;;;;;;;;;5091256;28;20030;-69
2021/07/09 10:03:15;;;;;;;6.38;3.80;;;;;;;;;;5091011;28;20046;-68
2021/07/09 10:05:46;;;;;;;7.60;4.65;;;;;;;;;;5091387;28;20067;-68
2021/07/09 10:08:17;;;;;;;5.68;3.05;;;;;;;;;;5091322;28;20433;-68
2021/07/09 10:10:44;;;;;;;7.22;3.60;;;;;;;;;;5092044;28;20488;-68
2021/07/09 10:13:15;;;;;;;6.95;4.03;;;;;;;;;;5092386;28;20028;-68
2021/07/09 10:15:43;;;;;;;7.85;4.30;;;;;;;;;;5090909;28;20020;-68
2021/07/09 10:18:13;;;;;;;5.00;3.65;;;;;;;;;;5090831;28;20024;-67
2021/07/09 10:20:41;;;;;;;4.93;3.35;;;;;;;;;;5092409;28;20392;-67
2021/07/09 10:23:08;;;;;;;8.52;4.57;;;;;;;;;;5092419;28;20482;-68
2021/07/09 10:25:35;;;;;;;6.32;4.03;;;;;;;;;;5092104;28;20024;-67
2021/07/09 10:28:06;;;;;;;7.82;4.40;;;;;;;;;;5091082;28;20469;-67
2021/07/09 10:30:36;;;;;;;4.68;3.47;;;;;;;;;;5092297;28;20032;-67
2021/07/09 10:33:22;;;;;;;6.32;3.83;;;;;;;;;;5091457;28;20027;-68
2021/07/09 10:35:48;;;;;;;5.50;3.88;;;;;;;;;;5090794;28;20035;-68
2021/07/09 10:38:22;;;;;;;7.72;4.10;;;;;;;;;;5091893;28;20028;-69
2021/07/09 10:40:48;;;;;;;6.63;4.07;;;;;;;;;;5090941;28;20032;-69
2021/07/09 10:43:15;;;;;;;5.95;3.40;;;;;;;;;;5092186;28;20472;-68
2021/07/09 10:45:42;;;;;;;6.25;3.45;;;;;;;;;;5091968;28;20464;-68
2021/07/09 10:48:10;;;;;;;6.60;4.05;;;;;;;;;;5092167;28;20541;-69
2021/07/09 10:50:49;;;;;;;6.65;4.05;;;;;;;;;;5091895;28;20103;-69
2021/07/09 10:53:17;;;;;;;7.70;4.55;;;;;;;;;;5091722;28;20035;-68
2021/07/09 10:55:43;;;;;;;6.78;3.50;;;;;;;;;;5090776;28;20020;-68
2021/07/09 10:58:10;;;;;;;7.70;4.13;;;;;;;;;;5094433;28;20028;-70
2021/07/09 11:00:55;;;;;;;5.30;4.05;;;;;;;;;;5094231;28;20079;-68
2021/07/09 11:03:26;;;;;;;7.03;3.75;;;;;;;;;;5094527;28;20050;-68
2021/07/09 11:05:52;;;;;;;5.25;3.17;;;;;;;;;;5096104;28;20048;-69
2021/07/09 11:08:48;;;;;;;5.90;3.58;;;;;;;;;;5095557;28;20081;-69
2021/07/09 11:11:18;;;;;;;6.38;3.58;;;;;;;;;;5109377;28;20052;-68
2021/07/09 11:13:51;;;;;;;6.85;3.72;;;;;;;;;;5095382;28;20026;-69
2021/07/09 11:16:18;;;;;;;4.95;3.08;;;;;;;;;;5094646;28;20024;-70
2021/07/09 11:18:50;;;;;;;7.93;3.45;;;;;;;;;;5095412;28;20469;-70
2021/07/09 11:21:17;;;;;;;6.57;3.03;;;;;;;;;;5095089;28;20470;-69
2021/07/09 11:23:53;;;;;;;7.30;3.40;;;;;;;;;;5095530;28;20104;-70
2021/07/09 11:26:19;;;;;;;5.13;3.00;;;;;;;;;;5095698;28;20502;-70
2021/07/09 11:28:46;;;;;;;5.32;2.97;;;;;;;;;;5095043;28;20043;-69
2021/07/09 11:31:12;;;;;;;6.00;2.83;;;;;;;;;;5095490;28;20527;-69
2021/07/09 11:33:38;;;;;;;3.67;2.60;;;;;;;;;;5094093;28;20024;-69
2021/07/09 11:36:19;;;;;;;6.28;3.47;;;;;;;;;;5095019;28;20035;-69
2021/07/09 11:39:04;;;;;;;3.60;2.42;;;;;;;;;;5095302;28;20073;-69
2021/07/09 11:41:30;;;;;;;5.20;3.20;;;;;;;;;;5093518;28;20056;-68
2021/07/09 11:43:56;;;;;;;4.57;2.78;;;;;;;;;;5095314;28;20024;-68
2021/07/09 11:46:23;;;;;;;4.35;2.47;;;;;;;;;;5094063;28;20032;-68
2021/07/09 11:48:49;;;;;;;5.28;2.97;;;;;;;;;;5093449;28;20077;-69
2021/07/09 11:51:15;;;;;;;4.63;3.10;;;;;;;;;;5094979;28;20108;-70
2021/07/09 11:53:41;;;;;;;7.43;2.50;;;;;;;;;;5092702;28;20023;-71
2021/07/09 11:56:16;;;;;;;4.18;2.70;;;;;;;;;;5095233;28;20024;-70
2021/07/09 11:58:43;;;;;;;5.57;2.65;;;;;;;;;;5115264;28;20026;-69
2021/07/09 12:01:17;;;;;;;3.92;2.42;;;;;;;;;;5114960;28;20024;-70
2021/07/09 12:03:49;;;;;;;4.38;2.17;;;;;;;;;;5114837;28;20023;-70
2021/07/09 12:06:19;;;;;;;7.05;2.78;;;;;;;;;;5115318;28;20038;-71
2021/07/09 12:08:56;;;;;;;3.65;2.60;;;;;;;;;;5114946;28;20096;-69
2021/07/09 12:11:22;;;;;;;4.53;2.83;;;;;;;;;;5114164;28;20050;-69
2021/07/09 12:14:07;;;;;;;4.03;2.55;;;;;;;;;;5114959;28;20023;-69
2021/07/09 12:16:33;;;;;;;5.13;2.92;;;;;;;;;;5114590;28;20027;-71
2021/07/09 12:19:03;;;;;;;7.28;3.05;;;;;;;;;;5113538;28;20034;-71
2021/07/09 12:21:29;;;;;;;3.80;2.58;;;;;;;;;;5114865;28;20382;-70
2021/07/09 12:24:06;;;;;;;4.18;2.67;;;;;;;;;;5114487;28;20024;-70
2021/07/09 12:26:32;;;;;;;6.57;2.90;;;;;;;;;;5114945;28;20475;-71
2021/07/09 12:28:59;;;;;;;6.60;3.35;;;;;;;;;;5114939;28;20023;-68
2021/07/09 12:31:26;;;;;;;3.55;2.50;;;;;;;;;;5114191;28;20509;-69
2021/07/09 12:33:53;;;;;;;3.58;2.47;;;;;;;;;;5114432;28;20024;-69
2021/07/09 12:36:22;;;;;;;4.43;2.72;;;;;;;;;;5114214;28;20020;-71
2021/07/09 12:38:56;;;;;;;3.60;2.67;;;;;;;;;;5112774;28;20032;-70
2021/07/09 12:41:30;;;;;;;4.32;2.80;;;;;;;;;;5113268;28;20106;-71
2021/07/09 12:43:56;;;;;;;3.85;2.42;;;;;;;;;;5113406;28;20019;-70
2021/07/09 12:46:23;;;;;;;5.47;2.92;;;;;;;;;;5113570;28;20468;-69
2021/07/09 12:48:58;;;;;;;4.40;2.75;;;;;;;;;;5114422;28;20019;-69
2021/07/09 12:51:25;;;;;;;4.22;2.70;;;;;;;;;;5114222;28;20075;-69
2021/07/09 12:53:58;;;;;;;4.22;2.42;;;;;;;;;;5113861;28;20026;-70
2021/07/09 12:56:26;;;;;;;4.45;2.78;;;;;;;;;;5114180;28;20479;-70
2021/07/09 12:58:59;;;;;;;4.00;2.53;;;;;;;;;;5113740;28;20850;-70
2021/07/09 13:01:26;;;;;;;4.50;2.50;;;;;;;;;;5112766;28;20106;-69
2021/07/09 13:03:52;;;;;;;6.75;3.20;;;;;;;;;;5114296;28;20015;-69
2021/07/09 13:06:18;;;;;;;5.13;3.00;;;;;;;;;;5112278;28;20364;-69
2021/07/09 13:08:46;;;;;;;6.88;2.97;;;;;;;;;;5113960;28;20145;-70
2021/07/09 13:11:16;;;;;;;4.38;2.60;;;;;;;;;;5113655;28;20076;-70
2021/07/09 13:13:51;;;;;;;4.78;3.13;;;;;;;;;;5113563;28;20024;-69
2021/07/09 13:16:18;;;;;;;4.32;2.80;;;;;;;;;;5113855;28;20111;-69
2021/07/09 13:18:51;;;;;;;3.00;2.35;;;;;;;;;;5112491;28;20478;-71
2021/07/09 13:21:17;;;;;;;3.50;2.22;;;;;;;;;;5112980;28;20024;-69
2021/07/09 13:24:00;;;;;;;3.92;2.60;;;;;;;;;;5113813;28;20020;-70
2021/07/09 13:26:32;;;;;;;4.15;2.45;;;;;;;;;;5113738;28;20030;-69
2021/07/09 13:28:58;;;;;;;3.90;2.25;;;;;;;;;;5113269;28;20486;-68
2021/07/09 13:31:24;;;;;;;5.25;2.40;;;;;;;;;;5113593;28;20027;-69
2021/07/09 13:33:52;;;;;;;3.17;2.22;;;;;;;;;;5113085;28;20020;-69
2021/07/09 13:36:18;;;;;;;4.45;2.65;;;;;;;;;;5113508;28;20051;-68
2021/07/09 13:38:46;;;;;;;4.07;2.47;;;;;;;;;;5113476;28;20024;-70
2021/07/09 13:41:13;;;;;;;3.88;2.40;;;;;;;;;;5113197;28;20375;-70
2021/07/09 13:43:39;;;;;;;3.03;2.13;;;;;;;;;;5112207;28;20023;-71
2021/07/09 13:46:06;;;;;;;3.67;2.38;;;;;;;;;;5113366;28;20028;-70
2021/07/09 13:48:32;;;;;;;3.55;2.47;;;;;;;;;;5111511;28;20019;-69
2021/07/09 13:50:58;;;;;;;4.35;2.40;;;;;;;;;;5113223;28;20102;-69
2021/07/09 13:53:25;;;;;;;4.47;2.63;;;;;;;;;;5113256;28;20379;-70
2021/07/09 13:55:51;;;;;;;3.50;2.40;;;;;;;;;;5112795;28;20019;-70
2021/07/09 13:58:17;;;;;;;3.50;2.40;;;;;;;;;;5111600;28;20435;-70
2021/07/09 14:00:43;;;;;;;3.53;2.63;;;;;;;;;;5111861;28;20024;-69
2021/07/09 14:03:09;;;;;;;3.83;2.83;;;;;;;;;;5111618;28;20020;-69
2021/07/09 14:05:35;;;;;;;4.32;2.60;;;;;;;;;;5113176;28;20463;-69
2021/07/09 14:08:02;;;;;;;6.30;2.72;;;;;;;;;;5111815;28;20044;-71
2021/07/09 14:10:28;;;;;;;5.45;2.65;;;;;;;;;;5112209;28;20047;-69
2021/07/09 14:12:54;;;;;;;4.10;2.22;;;;;;;;;;5113044;28;20051;-69
2021/07/09 14:15:20;;;;;;;4.32;2.72;;;;;;;;;;5111683;28;20024;-70
2021/07/09 14:17:46;;;;;;;4.68;2.85;;;;;;;;;;5111261;28;20031;-70
2021/07/09 14:20:13;;;;;;;4.28;2.67;;;;;;;;;;5113121;28;20035;-70
2021/07/09 14:22:39;;;;;;;5.15;3.00;;;;;;;;;;5111602;28;20039;-70
2021/07/09 14:25:06;;;;;;;4.22;2.78;;;;;;;;;;5112445;28;20027;-70
2021/07/09 14:27:32;;;;;;;3.35;2.58;;;;;;;;;;5112834;28;20027;-70
2021/07/09 14:29:58;;;;;;;3.80;2.60;;;;;;;;;;5111251;28;20024;-70
2021/07/09 14:32:24;;;;;;;5.15;2.95;;;;;;;;;;5113928;28;20506;-70
2021/07/09 14:34:50;;;;;;;5.35;2.42;;;;;;;;;;5116991;28;20084;-71
2021/07/09 14:37:17;;;;;;;7.60;3.17;;;;;;;;;;5116762;28;20556;-69
2021/07/09 14:39:44;;;;;;;6.07;2.97;;;;;;;;;;5116883;28;20023;-70
2021/07/09 14:42:10;;;;;;;6.43;2.70;;;;;;;;;;5116842;28;20031;-70
2021/07/09 14:44:36;;;;;;;2.63;1.90;;;;;;;;;;5116498;28;20103;-70
2021/07/09 14:47:03;;;;;;;4.28;2.50;;;;;;;;;;5116780;28;20034;-70
2021/07/09 14:49:29;;;;;;;5.13;2.60;;;;;;;;;;5116682;28;20030;-70
2021/07/09 14:51:55;;;;;;;6.68;2.90;;;;;;;;;;5116282;28;20039;-69
2021/07/09 14:54:21;;;;;;;6.15;2.60;;;;;;;;;;5116659;28;20019;-70
2021/07/09 14:56:47;;;;;;;3.17;2.35;;;;;;;;;;5116653;28;20023;-70
2021/07/09 14:59:13;;;;;;;3.22;2.25;;;;;;;;;;5116353;28;20031;-69
2021/07/09 15:01:40;;;;;;;4.55;2.78;;;;;;;;;;5116395;28;20035;-70
2021/07/09 15:04:06;;;;;;;3.80;2.72;;;;;;;;;;5115168;28;20400;-69
2021/07/09 15:06:32;;;;;;;3.17;2.33;;;;;;;;;;5115949;28;20028;-70
2021/07/09 15:08:58;;;;;;;5.10;2.17;;;;;;;;;;5114864;28;20073;-68
2021/07/09 15:11:24;;;;;;;3.45;2.65;;;;;;;;;;5114787;28;20062;-69